createdAt,value
2019-01-29T00:02:10.309Z,2.30
2019-01-29T00:07:14.587Z,2.00
2019-01-29T00:12:19.161Z,2.00
2019-01-29T00:17:23.362Z,1.90
2019-01-29T00:22:33.316Z,1.90
2019-01-29T00:27:33.524Z,2.00
2019-01-29T00:32:37.836Z,2.00
2019-01-29T00:37:42.056Z,1.90
2019-01-29T00:42:46.250Z,2.00
2019-01-29T00:47:50.424Z,2.00
2019-01-29T00:52:54.621Z,2.00
2019-01-29T00:57:58.817Z,2.00
2019-01-29T01:03:03.196Z,1.90
2019-01-29T01:08:07.503Z,2.00
2019-01-29T01:13:11.663Z,2.10
2019-01-29T01:18:16.126Z,2.30
2019-01-29T01:23:20.363Z,2.40
2019-01-29T01:28:25.469Z,2.30
2019-01-29T01:33:29.700Z,2.20
2019-01-29T01:38:33.969Z,2.30
2019-01-29T01:43:38.165Z,2.50
2019-01-29T01:48:42.403Z,2.50
2019-01-29T01:53:46.579Z,2.50
2019-01-29T01:58:50.819Z,2.70
2019-01-29T02:03:55.034Z,2.70
2019-01-29T02:08:59.303Z,2.80
2019-01-29T02:14:03.556Z,2.80
2019-01-29T02:19:07.748Z,2.80
2019-01-29T02:24:11.930Z,2.80
2019-01-29T02:29:16.127Z,2.90
2019-01-29T02:34:20.571Z,2.80
2019-01-29T02:39:24.749Z,2.90
2019-01-29T02:44:28.947Z,2.90
2019-01-29T02:49:33.206Z,2.90
2019-01-29T02:54:37.422Z,2.80
2019-01-29T02:59:41.639Z,2.80
2019-01-29T03:04:45.905Z,2.80
2019-01-29T03:09:50.140Z,2.80
2019-01-29T03:14:54.327Z,2.90
2019-01-29T03:19:58.525Z,3.00
2019-01-29T03:25:02.723Z,3.00
2019-01-29T03:30:08.745Z,3.00
2019-01-29T03:35:13.529Z,2.80
2019-01-29T03:40:21.020Z,2.70
2019-01-29T03:45:26.811Z,2.70
2019-01-29T03:50:31.009Z,2.70
2019-01-29T03:55:35.256Z,2.80
2019-01-29T04:00:39.452Z,2.70
2019-01-29T04:05:43.635Z,2.60
2019-01-29T04:10:47.918Z,2.70
2019-01-29T04:15:52.124Z,2.50
2019-01-29T04:20:56.315Z,2.50
2019-01-29T04:26:00.500Z,2.60
2019-01-29T04:31:04.709Z,2.70
2019-01-29T04:36:08.888Z,2.70
2019-01-29T04:41:13.143Z,2.70
2019-01-29T04:46:17.343Z,2.80
2019-01-29T04:51:21.591Z,2.90
2019-01-29T04:56:25.799Z,2.90
2019-01-29T05:01:30.052Z,2.90
2019-01-29T05:06:34.277Z,3.00
2019-01-29T05:11:38.488Z,3.00
2019-01-29T05:16:42.679Z,3.00
2019-01-29T05:21:46.887Z,3.00
2019-01-29T05:26:51.091Z,2.80
2019-01-29T05:31:55.266Z,3.00
2019-01-29T05:36:59.524Z,3.00
2019-01-29T05:42:03.774Z,3.10
2019-01-29T05:47:08.095Z,3.30
2019-01-29T05:52:12.285Z,3.30
2019-01-29T05:57:16.561Z,3.30
2019-01-29T06:02:20.752Z,3.30
2019-01-29T06:07:24.967Z,3.30
2019-01-29T06:12:29.165Z,3.40
2019-01-29T06:17:33.349Z,3.50
2019-01-29T06:22:37.592Z,3.40
2019-01-29T06:27:41.996Z,3.30
2019-01-29T06:32:46.480Z,3.40
2019-01-29T06:37:50.698Z,3.40
2019-01-29T06:42:54.968Z,3.50
2019-01-29T06:47:59.214Z,3.50
2019-01-29T06:53:03.403Z,3.40
2019-01-29T06:58:07.615Z,3.40
2019-01-29T07:03:11.884Z,3.30
2019-01-29T07:08:16.055Z,3.10
2019-01-29T07:13:20.244Z,3.20
2019-01-29T07:18:42.519Z,3.30
2019-01-29T07:23:46.865Z,3.20
2019-01-29T07:28:51.054Z,3.30
2019-01-29T07:33:55.335Z,3.30
2019-01-29T07:38:59.662Z,3.30
2019-01-29T07:44:03.867Z,3.20
2019-01-29T07:49:08.127Z,3.10
2019-01-29T07:54:12.394Z,3.00
2019-01-29T07:59:16.644Z,3.20
2019-01-29T08:04:20.858Z,3.50
2019-01-29T08:09:25.068Z,4.20
2019-01-29T08:14:29.335Z,5.40
2019-01-29T08:19:33.581Z,5.90
2019-01-29T08:24:37.965Z,5.00
2019-01-29T08:29:42.277Z,4.80
2019-01-29T08:34:46.483Z,4.40
2019-01-29T08:39:50.671Z,4.40
2019-01-29T08:44:54.952Z,4.30
2019-01-29T08:49:59.204Z,4.00
2019-01-29T08:55:10.470Z,4.00
2019-01-29T09:00:11.283Z,4.00
2019-01-29T09:05:15.827Z,3.90
2019-01-29T09:10:20.459Z,4.10
2019-01-29T09:15:25.107Z,4.20
2019-01-29T09:20:29.474Z,3.90
2019-01-29T09:25:33.696Z,4.00
2019-01-29T09:30:38.139Z,4.00
2019-01-29T09:35:42.327Z,3.90
2019-01-29T09:40:46.718Z,4.10
2019-01-29T09:45:51.148Z,4.20
2019-01-29T09:50:55.333Z,4.30
2019-01-29T09:55:59.523Z,4.40
2019-01-29T10:01:03.792Z,4.70
2019-01-29T10:06:08.094Z,4.90
2019-01-29T10:11:12.308Z,4.90
2019-01-29T10:16:16.607Z,4.80
2019-01-29T10:21:20.779Z,4.90
2019-01-29T10:26:24.997Z,5.10
2019-01-29T10:31:29.291Z,5.30
2019-01-29T10:36:33.580Z,5.50
2019-01-29T10:41:37.772Z,5.50
2019-01-29T10:46:41.981Z,6.00
2019-01-29T10:51:46.184Z,6.20
2019-01-29T10:56:50.428Z,6.20
2019-01-29T11:01:54.617Z,7.10
2019-01-29T11:06:58.880Z,7.10
2019-01-29T11:12:03.066Z,5.70
2019-01-29T11:17:07.359Z,5.70
2019-01-29T11:22:11.619Z,5.70
2019-01-29T11:27:15.843Z,5.80
2019-01-29T11:32:20.091Z,6.00
2019-01-29T11:37:24.319Z,6.10
2019-01-29T11:42:28.496Z,6.80
2019-01-29T11:47:32.736Z,7.60
2019-01-29T11:52:37.016Z,7.20
2019-01-29T11:57:41.212Z,6.80
2019-01-29T12:02:45.442Z,6.20
2019-01-29T12:07:49.716Z,5.40
2019-01-29T12:12:53.939Z,5.40
2019-01-29T12:17:58.395Z,5.00
2019-01-29T12:23:02.667Z,4.80
2019-01-29T12:28:07.280Z,4.70
2019-01-29T12:33:11.800Z,4.70
2019-01-29T12:38:16.188Z,4.80
2019-01-29T12:43:20.471Z,4.80
2019-01-29T12:48:24.785Z,5.00
2019-01-29T12:53:32.715Z,4.60
2019-01-29T12:58:37.999Z,4.40
2019-01-29T13:03:42.296Z,4.40
2019-01-29T13:08:46.492Z,4.30
2019-01-29T13:13:50.735Z,4.50
2019-01-29T13:18:54.988Z,4.20
2019-01-29T13:23:59.228Z,4.40
2019-01-29T13:29:03.940Z,4.40
2019-01-29T13:34:08.179Z,4.10
2019-01-29T13:39:12.430Z,4.20
2019-01-29T13:44:16.778Z,4.40
2019-01-29T13:49:21.043Z,4.50
2019-01-29T13:54:25.494Z,4.70
2019-01-29T13:59:29.704Z,5.10
2019-01-29T14:04:34.316Z,5.30
2019-01-29T14:09:38.600Z,5.00
2019-01-29T14:14:42.804Z,5.10
2019-01-29T14:19:46.997Z,5.60
2019-01-29T14:24:51.215Z,6.10
2019-01-29T14:29:55.447Z,5.50
2019-01-29T14:34:59.652Z,5.60
2019-01-29T14:40:16.994Z,5.90
2019-01-29T14:45:26.202Z,5.20
2019-01-29T14:50:30.903Z,5.30
2019-01-29T14:55:35.177Z,5.00
2019-01-29T15:00:39.805Z,4.80
2019-01-29T15:05:44.145Z,4.60
2019-01-29T15:10:48.512Z,4.80
2019-01-29T15:15:56.164Z,4.50
2019-01-29T15:21:00.404Z,4.60
2019-01-29T15:26:04.683Z,4.60
2019-01-29T15:31:08.907Z,4.50
2019-01-29T15:36:13.303Z,4.60
2019-01-29T15:41:17.513Z,4.50
2019-01-29T15:46:21.755Z,4.10
2019-01-29T15:51:25.962Z,4.10
2019-01-29T15:56:30.176Z,4.00
2019-01-29T16:01:34.445Z,4.10
2019-01-29T16:06:38.647Z,3.90
2019-01-29T16:11:42.948Z,3.80
2019-01-29T16:16:47.230Z,3.80
2019-01-29T16:21:51.543Z,3.70
2019-01-29T16:26:55.815Z,3.70
2019-01-29T16:32:00.105Z,3.60
2019-01-29T16:37:04.332Z,3.40
2019-01-29T16:42:08.565Z,3.40
2019-01-29T16:47:12.795Z,3.20
2019-01-29T16:52:17.350Z,3.20
2019-01-29T16:57:21.619Z,3.10
2019-01-29T17:02:25.880Z,3.10
2019-01-29T17:07:30.248Z,3.10
2019-01-29T17:12:34.979Z,3.10
2019-01-29T17:17:39.380Z,3.00
2019-01-29T17:22:43.640Z,2.90
2019-01-29T17:27:47.975Z,2.80
2019-01-29T17:32:53.835Z,2.90
2019-01-29T19:39:30.905Z,2.10
2019-01-29T19:44:35.177Z,2.10
2019-01-29T19:49:39.467Z,2.20
2019-01-29T19:54:43.760Z,2.00
2019-01-29T19:59:49.166Z,2.10
2019-01-29T20:04:53.492Z,2.30
2019-01-29T20:09:57.825Z,2.20
2019-01-29T20:15:02.218Z,2.10
2019-01-29T20:20:07.260Z,2.00
2019-01-29T20:25:13.079Z,2.00
2019-01-29T20:30:20.901Z,1.90
2019-01-29T20:35:25.830Z,1.80
2019-01-29T20:40:30.280Z,1.80
2019-01-29T20:45:34.567Z,1.90
2019-01-29T20:50:38.827Z,1.90
2019-01-29T20:55:43.151Z,2.00
2019-01-29T21:00:47.592Z,1.90
2019-01-29T21:05:51.866Z,1.90
2019-01-29T21:10:56.220Z,1.80
2019-01-29T21:16:00.827Z,1.70
2019-01-29T21:21:05.249Z,1.70
2019-01-29T21:26:09.566Z,1.70
2019-01-29T21:31:13.769Z,1.70
2019-01-29T21:36:18.105Z,1.70
2019-01-29T21:41:22.438Z,1.60
2019-01-29T21:46:26.720Z,1.40
2019-01-29T21:51:30.947Z,1.40
2019-01-29T21:56:35.208Z,1.40
2019-01-29T22:01:39.495Z,1.40
2019-01-29T22:06:43.732Z,1.40
2019-01-29T22:11:48.012Z,1.50
2019-01-29T22:16:52.260Z,1.50
2019-01-29T22:21:56.525Z,1.40
2019-01-29T22:27:00.847Z,1.40
2019-01-29T22:32:06.453Z,1.50
2019-01-29T22:37:10.747Z,1.40
2019-01-29T22:42:15.107Z,1.50
2019-01-29T22:47:19.343Z,1.50
2019-01-29T22:52:23.667Z,1.40
2019-01-29T22:57:27.863Z,1.30
2019-01-29T23:02:32.110Z,1.30
2019-01-29T23:07:38.615Z,1.40
2019-01-29T23:12:42.836Z,1.30
2019-01-29T23:17:47.131Z,1.40
2019-01-29T23:22:51.335Z,1.30
2019-01-29T23:27:55.631Z,1.30
2019-01-29T23:32:59.915Z,1.40
2019-01-29T23:38:04.319Z,1.50
2019-01-29T23:43:08.538Z,1.40
2019-01-29T23:48:12.719Z,1.50
2019-01-29T23:53:16.914Z,1.40
2019-01-29T23:58:21.116Z,1.50
